Terminal Aerodrome Forecast
Issued by NWS Huntsville, AL

Home | Current Version | Previous Version | Text Only | Print | Product List | Glossary On
Versions: 1 2 3 4 5 6 7 8 9 10 11 12 13 14 15 16 17 18 19 20 21 22 23 24 25 26 27 28 29 30 31 32 33 34 35 36 37 38 39 40 41
000
FTUS44 KHUN 191720
TAFHSV
TAF
KHSV 191720Z 1918/2018 22012G20KT P6SM BKN020 OVC040
     FM192000 23012G18KT 5SM SHRA VCTS BKN025CB
     FM200100 21008KT P6SM BKN040
     FM200300 18007KT P6SM BKN060
     FM200900 20010G15KT 5SM SHRA OVC020
     FM201500 26012KT P6SM OVC025=

USA.gov is the U.S. government's official web portal to all federal, state and local government web resources and services.